createdAt,value
2022-11-13T00:03:29.776Z,99.90
2022-11-13T00:07:31.728Z,99.90
2022-11-13T00:11:33.488Z,99.90
2022-11-13T00:15:35.167Z,99.90
2022-11-13T00:19:38.185Z,99.90
2022-11-13T00:23:40.385Z,99.90
2022-11-13T00:27:42.112Z,99.90
2022-11-13T00:31:43.790Z,99.90
2022-11-13T00:35:45.543Z,99.90
2022-11-13T00:39:47.361Z,99.90
2022-11-13T00:43:49.064Z,99.90
2022-11-13T00:47:50.757Z,99.90
2022-11-13T00:51:52.616Z,99.90
2022-11-13T00:55:54.525Z,99.90
2022-11-13T00:59:56.177Z,99.90
2022-11-13T01:03:57.861Z,99.90
2022-11-13T01:07:59.520Z,99.90
2022-11-13T01:12:02.054Z,99.90
2022-11-13T01:16:07.059Z,99.90
2022-11-13T01:20:09.672Z,99.90
2022-11-13T01:24:11.355Z,99.90
2022-11-13T01:28:13.060Z,99.90
2022-11-13T01:32:14.727Z,99.90
2022-11-13T01:36:19.819Z,99.90
2022-11-13T01:40:21.546Z,99.90
2022-11-13T01:44:23.413Z,99.90
2022-11-13T01:48:36.492Z,99.90
2022-11-13T01:52:42.579Z,99.90
2022-11-13T01:56:44.768Z,99.90
2022-11-13T02:00:46.999Z,99.90
2022-11-13T02:04:48.833Z,99.90
2022-11-13T02:08:54.239Z,99.90
2022-11-13T02:12:56.220Z,99.90
2022-11-13T02:17:02.704Z,99.90
2022-11-13T02:21:10.197Z,99.90
2022-11-13T02:25:13.056Z,99.90
2022-11-13T02:29:14.792Z,99.90
2022-11-13T02:33:34.708Z,99.90
2022-11-13T02:37:36.388Z,99.90
2022-11-13T02:41:38.501Z,99.90
2022-11-13T02:45:40.320Z,99.90
2022-11-13T02:49:44.570Z,99.90
2022-11-13T02:53:52.645Z,99.90
2022-11-13T02:57:54.357Z,99.90
2022-11-13T03:01:56.082Z,99.90
2022-11-13T03:05:57.799Z,99.90
2022-11-13T03:09:59.520Z,99.90
2022-11-13T03:14:20.017Z,99.90
2022-11-13T03:18:21.832Z,99.90
2022-11-13T03:22:23.605Z,99.90
2022-11-13T03:26:28.290Z,99.90
2022-11-13T03:30:30.073Z,99.90
2022-11-13T03:34:32.623Z,99.90
2022-11-13T03:38:34.965Z,99.90
2022-11-13T03:42:36.836Z,99.90
2022-11-13T03:46:38.516Z,99.90
2022-11-13T03:50:45.624Z,99.90
2022-11-13T03:54:47.452Z,99.90
2022-11-13T03:58:49.767Z,99.90
2022-11-13T04:02:51.625Z,99.90
2022-11-13T04:06:53.439Z,99.90
2022-11-13T04:10:55.243Z,99.90
2022-11-13T04:14:57.006Z,99.90
2022-11-13T04:18:58.827Z,99.90
2022-11-13T04:23:00.521Z,99.90
2022-11-13T04:27:02.252Z,99.90
2022-11-13T04:31:04.176Z,99.90
2022-11-13T04:35:07.259Z,99.90
2022-11-13T04:39:09.372Z,99.90
2022-11-13T04:43:11.054Z,99.90
2022-11-13T04:47:12.994Z,99.90
2022-11-13T04:51:14.745Z,99.90
2022-11-13T04:55:16.506Z,99.90
2022-11-13T04:59:18.597Z,99.90
2022-11-13T05:03:20.296Z,99.90
2022-11-13T05:07:22.164Z,99.90
2022-11-13T05:11:23.865Z,99.90
2022-11-13T05:15:26.463Z,99.90
2022-11-13T05:19:28.145Z,99.90
2022-11-13T05:23:30.294Z,99.90
2022-11-13T05:27:31.993Z,99.90
2022-11-13T05:31:33.681Z,99.90
2022-11-13T05:35:36.305Z,99.90
2022-11-13T05:39:38.012Z,99.90
2022-11-13T05:43:40.299Z,99.90
2022-11-13T05:47:41.996Z,99.90
2022-11-13T05:51:43.657Z,99.90
2022-11-13T05:55:45.584Z,99.90
2022-11-13T05:59:47.344Z,99.90
2022-11-13T06:03:49.921Z,99.90
2022-11-13T06:07:51.649Z,99.90
2022-11-13T06:11:53.479Z,99.90
2022-11-13T06:16:00.322Z,99.90
2022-11-13T06:20:01.991Z,99.90
2022-11-13T06:24:04.462Z,99.90
2022-11-13T06:28:06.246Z,99.90
2022-11-13T06:32:08.053Z,99.90
2022-11-13T06:36:24.175Z,99.90
2022-11-13T06:40:25.922Z,99.90
2022-11-13T06:44:33.840Z,99.90
2022-11-13T06:48:35.589Z,99.90
2022-11-13T06:52:41.366Z,99.90
2022-11-13T06:56:45.654Z,99.90
2022-11-13T07:00:52.784Z,99.90
2022-11-13T07:09:11.180Z,99.90
2022-11-13T07:13:15.139Z,99.90
2022-11-13T07:17:17.044Z,99.90
2022-11-13T07:21:19.134Z,99.90
2022-11-13T07:25:24.580Z,99.90
2022-11-13T07:29:26.371Z,99.90
2022-11-13T07:33:40.473Z,99.90
2022-11-13T07:37:43.101Z,99.90
2022-11-13T07:41:45.125Z,99.90
2022-11-13T07:45:46.983Z,99.90
2022-11-13T07:49:48.775Z,99.90
2022-11-13T07:58:06.541Z,99.90
2022-11-13T08:02:15.242Z,99.90
2022-11-13T08:06:16.915Z,99.90
2022-11-13T08:10:20.433Z,99.90
2022-11-13T08:14:22.349Z,99.90
2022-11-13T08:18:24.033Z,99.90
2022-11-13T08:22:26.895Z,99.90
2022-11-13T08:26:28.735Z,99.90
2022-11-13T08:30:30.488Z,99.90
2022-11-13T08:34:32.331Z,99.90
2022-11-13T08:38:34.310Z,99.90
2022-11-13T08:42:43.992Z,99.90
2022-11-13T08:46:45.678Z,99.90
2022-11-13T08:50:51.120Z,99.90
2022-11-13T08:54:53.267Z,99.90
2022-11-13T08:58:55.169Z,99.90
2022-11-13T09:08:19.124Z,99.90
2022-11-13T09:12:21.498Z,99.90
2022-11-13T09:16:23.769Z,99.90
2022-11-13T09:20:26.516Z,99.90
2022-11-13T09:24:34.326Z,99.90
2022-11-13T09:28:36.262Z,99.90
2022-11-13T09:32:38.295Z,99.90
2022-11-13T09:36:40.088Z,99.90
2022-11-13T09:40:55.878Z,99.90
2022-11-13T09:45:10.377Z,99.90
2022-11-13T09:49:15.887Z,99.90
2022-11-13T09:53:18.107Z,99.90
2022-11-13T09:58:13.401Z,99.90
2022-11-13T10:02:23.437Z,99.90
2022-11-13T10:06:53.468Z,99.80
2022-11-13T10:11:05.125Z,99.80
2022-11-13T10:15:10.969Z,99.70
2022-11-13T10:19:31.926Z,99.90
2022-11-13T10:23:38.486Z,99.90
2022-11-13T10:27:40.529Z,99.40
2022-11-13T10:31:50.698Z,99.70
2022-11-13T10:36:15.070Z,99.60
2022-11-13T10:40:27.132Z,99.50
2022-11-13T10:44:30.281Z,99.40
2022-11-13T10:48:34.811Z,99.10
2022-11-13T10:52:45.648Z,99.40
2022-11-13T10:57:00.938Z,99.40
2022-11-13T11:01:14.349Z,99.40
2022-11-13T11:05:24.461Z,99.10
2022-11-13T11:09:31.737Z,99.20
2022-11-13T11:13:33.578Z,98.60
2022-11-13T11:17:44.133Z,98.30
2022-11-13T11:21:51.676Z,98.40
2022-11-13T11:27:03.012Z,98.50
2022-11-13T11:31:17.163Z,98.20
2022-11-13T11:40:45.841Z,98.10
2022-11-13T11:50:59.281Z,98.00
2022-11-13T11:55:31.254Z,98.10
2022-11-13T12:00:03.074Z,98.40
2022-11-13T12:04:23.632Z,98.70
2022-11-13T12:08:52.046Z,98.50
2022-11-13T12:13:29.514Z,98.40
2022-11-13T12:17:43.380Z,99.10
2022-11-13T12:21:48.268Z,99.00
2022-11-13T12:26:10.570Z,98.30
2022-11-13T12:30:22.671Z,97.90
2022-11-13T12:34:32.680Z,98.00
2022-11-13T12:38:46.627Z,98.00
2022-11-13T12:43:07.555Z,98.10
2022-11-13T12:47:10.020Z,98.10
2022-11-13T12:51:17.288Z,98.20
2022-11-13T12:55:34.875Z,98.10
2022-11-13T12:59:40.139Z,97.80
2022-11-13T13:03:41.930Z,97.90
2022-11-13T13:07:51.495Z,97.90
2022-11-13T13:12:15.365Z,97.90
2022-11-13T13:16:24.665Z,98.00
2022-11-13T13:20:36.844Z,97.90
2022-11-13T13:24:39.639Z,97.90
2022-11-13T13:28:52.592Z,98.10
2022-11-13T13:33:07.849Z,98.10
2022-11-13T13:37:24.639Z,98.30
2022-11-13T13:41:44.441Z,99.00
2022-11-13T13:46:07.500Z,99.10
2022-11-13T13:50:25.326Z,98.80
2022-11-13T13:54:30.433Z,98.60
2022-11-13T13:58:36.190Z,98.70
2022-11-13T14:02:46.170Z,98.70
2022-11-13T14:06:52.260Z,98.60
2022-11-13T14:10:54.049Z,98.60
2022-11-13T14:14:55.781Z,98.70
2022-11-13T14:19:05.431Z,98.70
2022-11-13T14:23:11.830Z,98.70
2022-11-13T14:27:19.989Z,98.70
2022-11-13T14:31:27.677Z,98.70
2022-11-13T14:35:29.446Z,98.40
2022-11-13T14:39:34.141Z,98.60
2022-11-13T14:43:35.822Z,98.60
2022-11-13T14:47:37.898Z,98.70
2022-11-13T14:51:40.008Z,98.80
2022-11-13T14:55:53.184Z,98.60
2022-11-13T14:59:54.886Z,98.70
2022-11-13T15:03:56.775Z,98.60
2022-11-13T15:08:00.983Z,98.80
2022-11-13T15:12:02.753Z,98.90
2022-11-13T15:16:05.214Z,98.80
2022-11-13T15:20:09.750Z,98.80
2022-11-13T15:24:12.814Z,99.10
2022-11-13T15:28:14.524Z,99.10
2022-11-13T15:32:16.601Z,99.20
2022-11-13T15:36:18.503Z,99.20
2022-11-13T15:40:20.479Z,98.80
2022-11-13T15:44:22.262Z,98.90
2022-11-13T15:48:24.285Z,99.00
2022-11-13T15:52:29.643Z,98.80
2022-11-13T15:56:31.848Z,99.10
2022-11-13T16:00:40.598Z,99.00
2022-11-13T16:04:55.445Z,99.30
2022-11-13T16:09:01.785Z,99.10
2022-11-13T16:13:03.715Z,98.90
2022-11-13T16:17:28.191Z,99.00
2022-11-13T16:21:30.749Z,99.50
2022-11-13T16:25:32.497Z,99.30
2022-11-13T16:29:34.319Z,99.40
2022-11-13T16:33:36.390Z,99.30
2022-11-13T16:37:38.972Z,99.40
2022-11-13T16:41:40.672Z,99.30
2022-11-13T16:45:42.383Z,99.20
2022-11-13T16:49:44.074Z,99.10
2022-11-13T16:53:45.942Z,99.20
2022-11-13T16:57:47.751Z,99.20
2022-11-13T17:01:54.636Z,99.20
2022-11-13T17:05:56.766Z,99.50
2022-11-13T17:10:24.301Z,99.60
2022-11-13T17:14:20.249Z,99.50
2022-11-13T17:18:21.931Z,99.20
2022-11-13T17:22:23.633Z,99.50
2022-11-13T17:26:26.204Z,99.10
2022-11-13T17:30:28.084Z,99.10
2022-11-13T17:34:29.990Z,98.90
2022-11-13T17:38:31.811Z,99.30
2022-11-13T17:42:34.071Z,98.70
2022-11-13T17:46:35.817Z,99.00
2022-11-13T17:50:37.475Z,98.90
2022-11-13T17:54:39.172Z,98.70
2022-11-13T17:58:47.690Z,98.50
2022-11-13T18:02:49.420Z,98.70
2022-11-13T18:06:51.194Z,98.60
2022-11-13T18:10:53.007Z,98.70
2022-11-13T18:14:54.747Z,98.60
2022-11-13T18:18:58.295Z,98.20
2022-11-13T18:23:00.108Z,98.50
2022-11-13T18:27:02.177Z,98.70
2022-11-13T18:31:08.796Z,98.10
2022-11-13T18:35:10.762Z,98.30
2022-11-13T18:39:16.447Z,98.30
2022-11-13T18:43:18.666Z,98.40
2022-11-13T18:47:20.574Z,98.20
2022-11-13T18:51:24.277Z,98.00
2022-11-13T18:55:26.046Z,98.20
2022-11-13T18:59:28.272Z,98.10
2022-11-13T19:03:30.353Z,98.20
2022-11-13T19:07:32.554Z,98.50
2022-11-13T19:11:34.445Z,98.20
2022-11-13T19:15:37.990Z,98.00
2022-11-13T19:19:41.781Z,97.90
2022-11-13T19:23:43.976Z,98.10
2022-11-13T19:27:45.813Z,97.90
2022-11-13T19:31:48.878Z,98.50
2022-11-13T19:35:52.271Z,98.00
2022-11-13T19:39:53.935Z,98.20
2022-11-13T19:43:58.387Z,98.90
2022-11-13T19:48:00.055Z,99.60
2022-11-13T19:52:01.962Z,99.90
2022-11-13T19:56:05.037Z,99.90
2022-11-13T20:00:07.762Z,99.90
2022-11-13T20:04:12.733Z,99.90
2022-11-13T20:08:14.650Z,99.90
2022-11-13T20:12:16.482Z,99.90
2022-11-13T20:16:21.057Z,99.90
2022-11-13T20:20:23.119Z,99.90
2022-11-13T20:24:24.798Z,99.90
2022-11-13T20:28:29.492Z,99.90
2022-11-13T20:32:31.341Z,99.90
2022-11-13T20:36:33.282Z,99.90
2022-11-13T20:40:34.978Z,99.90
2022-11-13T20:44:36.683Z,99.90
2022-11-13T20:48:39.812Z,99.90
2022-11-13T20:52:41.655Z,99.90
2022-11-13T20:56:43.384Z,99.90
2022-11-13T21:00:45.470Z,99.90
2022-11-13T21:04:47.160Z,99.90
2022-11-13T21:08:49.373Z,99.90
2022-11-13T21:12:51.066Z,99.90
2022-11-13T21:16:52.756Z,99.90
2022-11-13T21:20:54.521Z,99.90
2022-11-13T21:24:56.235Z,99.90
2022-11-13T21:29:00.264Z,99.90
2022-11-13T21:33:02.004Z,99.90
2022-11-13T21:37:03.755Z,99.90
2022-11-13T21:41:23.201Z,99.90
2022-11-13T21:45:25.614Z,99.90
2022-11-13T21:49:27.354Z,99.90
2022-11-13T21:53:29.013Z,99.90
2022-11-13T21:57:30.901Z,99.90
2022-11-13T22:01:38.208Z,99.90
2022-11-13T22:05:40.654Z,99.90
2022-11-13T22:09:42.392Z,99.90
2022-11-13T22:13:44.170Z,99.90
2022-11-13T22:17:45.816Z,99.90
2022-11-13T22:21:47.603Z,99.90
2022-11-13T22:25:49.330Z,99.90
2022-11-13T22:29:51.041Z,99.90
2022-11-13T22:33:55.353Z,99.90
2022-11-13T22:37:57.292Z,99.90
2022-11-13T22:41:58.972Z,99.90
2022-11-13T22:46:06.078Z,99.90
2022-11-13T22:50:08.115Z,99.90
2022-11-13T22:54:11.775Z,99.90
2022-11-13T22:58:13.434Z,99.90
2022-11-13T23:02:15.154Z,99.90
2022-11-13T23:06:19.597Z,99.90
2022-11-13T23:10:25.313Z,99.90
2022-11-13T23:14:27.120Z,99.90
2022-11-13T23:18:32.558Z,99.90
2022-11-13T23:22:34.676Z,99.90
2022-11-13T23:26:36.428Z,99.90
2022-11-13T23:30:38.125Z,99.90
2022-11-13T23:35:03.688Z,99.90
2022-11-13T23:39:05.431Z,99.90
2022-11-13T23:43:07.532Z,99.90
2022-11-13T23:47:09.274Z,99.90
2022-11-13T23:51:10.929Z,99.90
2022-11-13T23:55:12.774Z,99.90
2022-11-13T23:59:14.500Z,99.90
